ADDS METAR Data INFO
IDs: Format: Raw Decoded Include TAF

Data at: 0935 UTC 17 Oct 2017

PAAQ 170853Z AUTO 36004KT 10SM CLR M02/M04 A2955 RMK AO2 SLP013 T10221039 400281056 56003 TSNO
PAAQ 170753Z AUTO 00000KT 10SM BKN042 M01/M03 A2956 RMK AO2 SLP013 T10111028 TSNO
PAAQ 170653Z AUTO 00000KT 10SM OVC043 M01/M02 A2956 RMK AO2 SLP015 T10111022 TSNO
PAAQ 170553Z AUTO 00000KT 10SM OVC043 00/M02 A2956 RMK AO2 SLP016 T00001022 10028 21006 50001 TSNO
PAAQ 170453Z AUTO 00000KT 10SM SCT041 OVC070 00/M02 A2957 RMK AO2 SLP017 T00001022 TSNO
PAAQ 170353Z AUTO 00000KT 10SM FEW036 OVC070 01/M02 A2956 RMK AO2 SLP014 T00061017 TSNO
PAAQ 170253Z AUTO 15003KT 10SM SCT035 OVC070 01/M01 A2956 RMK AO2 SLP015 T00111011 53000 TSNO
PAAQ 170153Z 19003KT 10SM FEW020 SCT070 02/M02 A2956 RMK AO2 SLP014 T00221022
PAAQ 170053Z 22004KT 10SM FEW020 SCT120 02/M02 A2956 RMK AO2 SLP014 T00221022
PAAQ 162353Z 26003KT 10SM FEW020 03/M02 A2956 RMK AO2 SLP013 T00281017 10028 21039 57002
PAAQ 162253Z 21004KT 10SM FEW020 02/M03 A2956 RMK AO2 SLP015 T00171028
PAAQ 162153Z 22003KT 10SM FEW020 FEW160 02/M02 A2956 RMK AO2 SLP015 T00171022
PAAQ 162053Z 24005KT 10SM FEW020 FEW160 01/M02 A2957 RMK AO2 SLP016 T00061017 51010
PAAQ 161953Z 00000KT 10SM FEW160 M01/M02 A2956 RMK AO2 SLP014 T10111022
PAAQ 161853Z 00000KT 10SM FEW140 M02/M03 A2955 RMK AO2 SLP010 T10221033
PAAQ 161753Z 35003KT 10SM FEW010 FEW140 M04/M04 A2953 RMK AO2 SLP006 I6001 T10391044 11028 21056 52004
PAAQ 161653Z 34005KT 10SM FEW010 FEW140 M04/M05 A2953 RMK AO2 SLP004 T10441050
PAAQ 161553Z 34004KT 10SM SCT100 M05/M05 A2953 RMK AO2 SLP003 I1001 T10501050
PAAQ 161453Z AUTO 00000KT 10SM CLR M04/M06 A2952 RMK AO2 SLP002 T10441056 53005 TSNO
PAAQ 161353Z AUTO 00000KT 10SM BKN090 M04/M04 A2951 RMK AO2 SLP999 T10441044 TSNO $
PAAQ 161253Z AUTO 00000KT 10SM BKN090 M04/M04 A2951 RMK AO2 SLP996 T10391044 TSNO $
PAAQ 161153Z AUTO 00000KT 10SM OVC090 M03/M03 A2951 RMK AO2 SLP996 T10281033 11017 21033 53005 TSNO $
PAAQ 161053Z AUTO 34004KT 10SM OVC090 M03/M04 A2950 RMK AO2 SLP994 T10281039 TSNO $
PAAQ 160953Z AUTO 35006KT 10SM BKN085 M02/M03 A2950 RMK AO2 SLP993 T10221033 TSNO $
PAAQ 160853Z AUTO 35006KT 10SM M02/M03 A2949 RMK AO2 SLP992 T10221033 400331039 51005 TSNO $
PAAQ 160753Z AUTO 35006KT 10SM OVC085 M02/M03 A2949 RMK AO2 SLP991 T10171028 TSNO
PAAQ 160653Z AUTO 35006KT 10SM OVC085 M02/M03 A2949 RMK AO2 SLP989 T10171028 TSNO
PAAQ 160553Z AUTO 35005KT 10SM CLR M02/M03 A2948 RMK AO2 SLP987 T10171033 10028 21028 53005 TSNO
PAAQ 160453Z AUTO 35005KT 10SM CLR M02/M03 A2947 RMK AO2 SLP984 T10171033 TSNO
PAAQ 160353Z AUTO 00000KT 10SM CLR M02/M03 A2947 RMK AO2 SLP983 T10171028 TSNO
PAAQ 160253Z AUTO 00000KT 10SM SCT035 01/M02 A2946 RMK AO2 SLP982 T00061017 55001 TSNO
PAAQ 160153Z 00000KT 10SM FEW025 SCT200 02/M01 A2946 RMK AO2 SLP980 T00171011
PAAQ 160053Z 00000KT 10SM FEW025 SCT200 03/M01 A2946 RMK AO2 SLP981 T00281011
PAAQ 152353Z 15004KT 10SM FEW020 SCT200 03/M01 A2947 RMK AO2 SLP982 I6001 T00281011 10033 21017 58002
PAAQ 152253Z 13004KT 10SM SCT015 SCT200 03/M01 A2947 RMK AO2 SLP983 T00281006
PAAQ 152153Z 00000KT 10SM SCT017 SCT070 02/M01 A2948 RMK AO2 SLP985 T00221006